Time;durP1;ratioP1;P1;durP2;ratioP2;P2;SDS_P1;SDS_P2;PMS_P1;PMS_P2;Temp;Humidity;BMP_temperature;BMP_pressure;BME280_temperature;BME280_humidity;BME280_pressure;Samples;Min_cycle;Max_cycle;Signal;HPM_P1;HPM_P2
2023/06/05 00:01:40;;;;;;;5.22;1.20;;;;;;;;;;5013913;28;20063;-78
2023/06/05 00:04:05;;;;;;;4.72;1.40;;;;;;;;;;5028267;28;20116;-77
2023/06/05 00:06:31;;;;;;;2.88;1.25;;;;;;;;;;5026280;28;20034;-78
2023/06/05 00:08:56;;;;;;;3.13;1.17;;;;;;;;;;5029355;28;20406;-79
2023/06/05 00:11:21;;;;;;;3.28;1.60;;;;;;;;;;5032151;28;20084;-78
2023/06/05 00:13:47;;;;;;;3.30;1.27;;;;;;;;;;5030888;28;20034;-79
2023/06/05 00:16:12;;;;;;;2.30;1.10;;;;;;;;;;5033493;28;20041;-78
2023/06/05 00:18:37;;;;;;;3.08;1.30;;;;;;;;;;5032456;28;20026;-79
2023/06/05 00:21:03;;;;;;;3.15;1.27;;;;;;;;;;5034430;28;20017;-78
2023/06/05 00:23:29;;;;;;;4.78;1.52;;;;;;;;;;5034901;28;20033;-78
2023/06/05 00:25:54;;;;;;;3.50;1.40;;;;;;;;;;5031913;28;20032;-79
2023/06/05 00:28:20;;;;;;;3.15;1.20;;;;;;;;;;5036098;28;20037;-77
2023/06/05 00:30:45;;;;;;;3.15;1.33;;;;;;;;;;5035322;28;20033;-79
2023/06/05 00:33:11;;;;;;;2.95;1.20;;;;;;;;;;5037010;28;20052;-79
2023/06/05 00:35:36;;;;;;;3.05;1.30;;;;;;;;;;5030564;28;20037;-79
2023/06/05 00:38:01;;;;;;;3.55;1.63;;;;;;;;;;5036580;28;20038;-79
2023/06/05 00:40:26;;;;;;;2.45;1.20;;;;;;;;;;5033101;28;20476;-79
2023/06/05 00:42:53;;;;;;;2.33;1.00;;;;;;;;;;5033766;28;20510;-78
2023/06/05 00:45:18;;;;;;;3.75;1.50;;;;;;;;;;5034840;28;20100;-77
2023/06/05 00:47:43;;;;;;;2.78;1.17;;;;;;;;;;5032375;28;20081;-79
2023/06/05 00:50:11;;;;;;;2.45;1.10;;;;;;;;;;5037583;28;20032;-79
2023/06/05 00:52:36;;;;;;;2.45;1.10;;;;;;;;;;5027913;28;20053;-78
2023/06/05 00:55:02;;;;;;;3.33;1.27;;;;;;;;;;5034027;28;20481;-79
2023/06/05 00:57:28;;;;;;;4.63;1.52;;;;;;;;;;5034799;28;20029;-79
2023/06/05 00:59:53;;;;;;;3.75;1.27;;;;;;;;;;5030924;28;20116;-79
2023/06/05 01:02:19;;;;;;;4.75;1.52;;;;;;;;;;5032807;28;20023;-78
2023/06/05 01:04:46;;;;;;;4.38;1.50;;;;;;;;;;5030888;28;20021;-79
2023/06/05 01:07:13;;;;;;;3.95;1.60;;;;;;;;;;5033719;28;20028;-78
2023/06/05 01:09:39;;;;;;;4.95;1.20;;;;;;;;;;5015894;28;20099;-78
2023/06/05 01:12:11;;;;;;;4.88;1.40;;;;;;;;;;5033943;28;20033;-77
2023/06/05 01:14:38;;;;;;;3.47;1.50;;;;;;;;;;5030191;28;20113;-79
2023/06/05 01:17:04;;;;;;;3.03;1.50;;;;;;;;;;5028474;28;20045;-79
2023/06/05 01:19:31;;;;;;;5.30;1.98;;;;;;;;;;5033950;28;20038;-79
2023/06/05 01:21:56;;;;;;;3.38;1.60;;;;;;;;;;5033110;28;20038;-79
2023/06/05 01:24:22;;;;;;;4.30;1.60;;;;;;;;;;5033293;28;20030;-79
2023/06/05 01:27:02;;;;;;;4.78;1.70;;;;;;;;;;5030951;28;20395;-79
2023/06/05 01:29:43;;;;;;;3.38;1.50;;;;;;;;;;5030970;28;20036;-79
2023/06/05 01:32:15;;;;;;;4.18;1.80;;;;;;;;;;5028336;28;20444;-79
2023/06/05 01:34:43;;;;;;;4.75;1.90;;;;;;;;;;5033183;28;20120;-79
2023/06/05 01:37:12;;;;;;;3.60;1.20;;;;;;;;;;5032275;28;20029;-79
2023/06/05 01:39:38;;;;;;;3.13;1.30;;;;;;;;;;5034895;28;20038;-78
2023/06/05 01:42:03;;;;;;;3.22;1.23;;;;;;;;;;5034801;28;20021;-77
2023/06/05 01:44:29;;;;;;;4.40;1.52;;;;;;;;;;5031324;28;20074;-79
2023/06/05 01:46:56;;;;;;;2.92;1.38;;;;;;;;;;5030777;28;20021;-78
2023/06/05 01:49:22;;;;;;;2.72;1.25;;;;;;;;;;5035381;28;20063;-79
2023/06/05 01:51:47;;;;;;;3.05;1.50;;;;;;;;;;5029107;28;20034;-78
2023/06/05 01:54:15;;;;;;;3.92;1.58;;;;;;;;;;5029472;28;20427;-78
2023/06/05 01:56:42;;;;;;;4.80;1.60;;;;;;;;;;5014314;28;20049;-78
2023/06/05 01:59:08;;;;;;;3.92;1.40;;;;;;;;;;5034102;28;20052;-78
2023/06/05 02:01:34;;;;;;;5.18;1.52;;;;;;;;;;5035064;28;20503;-78
2023/06/05 02:04:04;;;;;;;4.32;1.45;;;;;;;;;;5033327;28;20116;-79
2023/06/05 02:06:32;;;;;;;5.68;1.52;;;;;;;;;;5034260;28;20038;-78
2023/06/05 02:08:58;;;;;;;3.40;1.40;;;;;;;;;;5030558;28;20476;-78
2023/06/05 02:11:26;;;;;;;4.85;1.52;;;;;;;;;;5027202;28;20022;-79
2023/06/05 02:13:52;;;;;;;3.05;1.60;;;;;;;;;;5026715;28;20021;-79
2023/06/05 02:16:17;;;;;;;3.97;1.65;;;;;;;;;;5013124;28;20516;-78
2023/06/05 02:18:43;;;;;;;2.63;1.15;;;;;;;;;;5030449;28;20041;-78
2023/06/05 02:21:10;;;;;;;3.25;1.58;;;;;;;;;;5035962;28;20076;-79
2023/06/05 02:23:35;;;;;;;3.80;1.80;;;;;;;;;;5031629;28;20049;-79
2023/06/05 02:26:00;;;;;;;4.65;1.52;;;;;;;;;;5035690;28;20026;-78
2023/06/05 02:28:26;;;;;;;2.50;1.40;;;;;;;;;;5032300;28;20409;-79
2023/06/05 02:30:53;;;;;;;4.70;1.98;;;;;;;;;;5012022;28;20025;-77
2023/06/05 02:33:19;;;;;;;3.85;1.70;;;;;;;;;;5030551;28;20049;-78
2023/06/05 02:35:44;;;;;;;3.65;1.70;;;;;;;;;;5031712;28;20120;-77
2023/06/05 02:38:12;;;;;;;3.78;1.40;;;;;;;;;;5030782;28;20033;-78
2023/06/05 02:40:38;;;;;;;6.70;1.73;;;;;;;;;;5028691;28;20391;-78
2023/06/05 02:43:05;;;;;;;2.90;1.35;;;;;;;;;;5025304;28;20040;-78
2023/06/05 02:45:33;;;;;;;3.47;1.30;;;;;;;;;;5033213;28;20025;-78
2023/06/05 02:47:58;;;;;;;4.40;1.77;;;;;;;;;;5033876;28;20025;-78
2023/06/05 02:50:23;;;;;;;4.13;1.40;;;;;;;;;;5033102;28;20071;-78
2023/06/05 02:52:51;;;;;;;4.10;1.52;;;;;;;;;;5029328;28;20365;-78
2023/06/05 02:55:23;;;;;;;5.40;1.80;;;;;;;;;;5033255;28;20112;-78
2023/06/05 02:57:50;;;;;;;4.10;1.63;;;;;;;;;;5029087;28;20029;-78
2023/06/05 03:00:21;;;;;;;5.10;1.52;;;;;;;;;;5017435;28;20025;-78
2023/06/05 03:02:51;;;;;;;3.33;1.70;;;;;;;;;;5022663;28;20029;-78
2023/06/05 03:05:27;;;;;;;8.15;2.00;;;;;;;;;;5031905;28;20056;-78
2023/06/05 03:07:57;;;;;;;8.65;1.67;;;;;;;;;;5031441;28;20503;-78
2023/06/05 03:10:23;;;;;;;5.97;1.92;;;;;;;;;;5047212;28;20017;-77
2023/06/05 03:12:49;;;;;;;7.80;1.80;;;;;;;;;;5033971;28;20025;-78
2023/06/05 03:15:16;;;;;;;5.43;1.60;;;;;;;;;;5034623;28;20033;-79
2023/06/05 03:17:42;;;;;;;5.35;1.80;;;;;;;;;;5033430;28;20017;-79
2023/06/05 03:20:09;;;;;;;5.90;1.80;;;;;;;;;;5024652;28;20450;-78
2023/06/05 03:22:34;;;;;;;5.70;1.70;;;;;;;;;;5031591;28;20025;-78
2023/06/05 03:25:00;;;;;;;4.50;1.83;;;;;;;;;;5032942;28;20145;-78
2023/06/05 03:27:25;;;;;;;3.40;1.38;;;;;;;;;;5033364;28;20034;-79
2023/06/05 03:29:50;;;;;;;10.05;2.45;;;;;;;;;;5032354;28;20033;-79
2023/06/05 03:32:16;;;;;;;5.80;1.80;;;;;;;;;;5032816;28;20045;-78
2023/06/05 03:34:43;;;;;;;12.23;2.13;;;;;;;;;;5033098;28;20025;-78
2023/06/05 03:37:08;;;;;;;4.82;1.50;;;;;;;;;;5030197;28;20079;-78
2023/06/05 03:39:33;;;;;;;4.88;1.60;;;;;;;;;;5032991;28;20116;-77
2023/06/05 03:42:00;;;;;;;5.80;1.75;;;;;;;;;;5032703;28;20051;-78
2023/06/05 03:44:28;;;;;;;6.63;2.10;;;;;;;;;;5007634;28;20033;-78
2023/06/05 03:46:53;;;;;;;5.80;2.78;;;;;;;;;;5032192;28;20483;-79
2023/06/05 03:49:20;;;;;;;5.03;1.98;;;;;;;;;;5030642;28;20080;-77
2023/06/05 03:51:48;;;;;;;5.28;1.70;;;;;;;;;;5026665;28;20032;-78
2023/06/05 03:54:16;;;;;;;6.30;1.73;;;;;;;;;;5024646;28;20029;-78
2023/06/05 03:56:45;;;;;;;4.75;1.77;;;;;;;;;;5030338;28;20029;-78
2023/06/05 03:59:23;;;;;;;6.22;2.10;;;;;;;;;;5032745;28;20029;-77
2023/06/05 04:01:57;;;;;;;7.53;1.80;;;;;;;;;;5031428;28;20522;-78
2023/06/05 04:04:23;;;;;;;6.90;2.63;;;;;;;;;;5027704;28;20044;-78
2023/06/05 04:06:50;;;;;;;4.78;2.30;;;;;;;;;;5031783;28;20056;-78
2023/06/05 04:09:15;;;;;;;4.72;2.35;;;;;;;;;;5014858;28;20059;-79
2023/06/05 04:11:43;;;;;;;3.55;2.00;;;;;;;;;;5033147;28;20017;-78
2023/06/05 04:14:10;;;;;;;4.03;2.25;;;;;;;;;;5031639;28;20624;-79
2023/06/05 04:16:39;;;;;;;4.47;2.05;;;;;;;;;;5029970;28;20104;-78
2023/06/05 04:19:06;;;;;;;4.28;1.80;;;;;;;;;;5031427;28;20029;-78
2023/06/05 04:21:33;;;;;;;4.70;2.03;;;;;;;;;;5032742;28;20033;-78
2023/06/05 04:23:58;;;;;;;5.95;2.10;;;;;;;;;;5032893;28;20037;-77
2023/06/05 04:26:26;;;;;;;4.47;2.10;;;;;;;;;;5033053;28;20488;-79
2023/06/05 04:28:51;;;;;;;4.55;2.17;;;;;;;;;;5028779;28;20030;-79
2023/06/05 04:31:16;;;;;;;5.78;2.83;;;;;;;;;;5031397;28;20022;-78
2023/06/05 04:33:43;;;;;;;4.60;2.17;;;;;;;;;;5027321;28;20033;-79
2023/06/05 04:36:08;;;;;;;7.70;2.63;;;;;;;;;;5028606;28;20400;-78
2023/06/05 04:38:33;;;;;;;4.30;2.20;;;;;;;;;;5031859;28;20075;-78
2023/06/05 04:40:59;;;;;;;4.07;2.10;;;;;;;;;;5030589;28;20029;-79
2023/06/05 04:43:24;;;;;;;3.90;2.10;;;;;;;;;;5031688;28;20060;-78
2023/06/05 04:45:50;;;;;;;4.85;1.92;;;;;;;;;;5032586;28;20086;-78
2023/06/05 04:48:16;;;;;;;5.80;2.15;;;;;;;;;;5030690;28;20641;-79
2023/06/05 04:50:42;;;;;;;3.58;1.77;;;;;;;;;;5030570;28;20014;-79
2023/06/05 04:53:10;;;;;;;4.60;2.33;;;;;;;;;;5031598;28;20515;-78
2023/06/05 04:55:36;;;;;;;5.28;2.10;;;;;;;;;;5032734;28;20392;-78
2023/06/05 04:58:02;;;;;;;6.22;2.83;;;;;;;;;;5029516;28;20021;-78
2023/06/05 05:00:29;;;;;;;4.88;3.00;;;;;;;;;;5028068;28;20029;-78
2023/06/05 05:02:55;;;;;;;12.40;8.00;;;;;;;;;;5028520;28;20484;-78
2023/06/05 05:05:20;;;;;;;7.85;5.03;;;;;;;;;;5029593;28;20029;-79
2023/06/05 05:07:47;;;;;;;9.63;5.82;;;;;;;;;;5033674;28;20563;-78
2023/06/05 05:10:14;;;;;;;6.10;3.75;;;;;;;;;;5034493;28;20455;-79
2023/06/05 05:12:39;;;;;;;6.63;2.50;;;;;;;;;;5035178;28;20400;-78
2023/06/05 05:15:06;;;;;;;5.05;2.00;;;;;;;;;;5031968;28;20075;-78
2023/06/05 05:17:32;;;;;;;5.40;2.13;;;;;;;;;;5034783;28;20479;-79
2023/06/05 05:19:57;;;;;;;6.25;2.20;;;;;;;;;;5034062;28;20036;-78
2023/06/05 05:22:24;;;;;;;4.22;1.90;;;;;;;;;;5034648;28;20410;-77
2023/06/05 05:24:49;;;;;;;5.78;3.38;;;;;;;;;;5034340;28;20029;-78
2023/06/05 05:27:14;;;;;;;5.57;3.25;;;;;;;;;;5050897;28;20334;-79
2023/06/05 05:29:40;;;;;;;7.85;3.35;;;;;;;;;;5034884;28;20029;-79
2023/06/05 05:32:06;;;;;;;5.80;3.15;;;;;;;;;;5028760;28;20500;-79
2023/06/05 05:34:33;;;;;;;5.93;2.80;;;;;;;;;;5032788;28;20026;-78
2023/06/05 05:36:58;;;;;;;5.32;2.28;;;;;;;;;;5032202;28;20030;-78
2023/06/05 05:39:24;;;;;;;6.18;2.60;;;;;;;;;;5034394;28;20040;-78
2023/06/05 05:41:49;;;;;;;5.20;2.13;;;;;;;;;;5033356;28;20025;-78
2023/06/05 05:44:15;;;;;;;4.28;2.25;;;;;;;;;;5034114;28;20087;-79
2023/06/05 05:46:40;;;;;;;5.93;3.08;;;;;;;;;;5035517;28;20056;-78
2023/06/05 05:49:05;;;;;;;6.75;3.20;;;;;;;;;;5033932;28;20033;-78
2023/06/05 05:51:31;;;;;;;7.85;2.58;;;;;;;;;;5034215;28;20443;-79
2023/06/05 05:53:56;;;;;;;5.80;2.60;;;;;;;;;;5032855;28;20022;-79
2023/06/05 05:56:21;;;;;;;4.72;1.90;;;;;;;;;;5034427;28;20395;-78
2023/06/05 05:58:47;;;;;;;4.35;2.30;;;;;;;;;;5035418;28;20056;-78
2023/06/05 06:01:13;;;;;;;3.85;2.10;;;;;;;;;;5032851;28;20523;-78
2023/06/05 06:03:38;;;;;;;6.10;2.15;;;;;;;;;;5034381;28;20395;-78
2023/06/05 06:06:07;;;;;;;7.78;2.50;;;;;;;;;;5034186;28;20491;-78
2023/06/05 06:08:33;;;;;;;3.55;1.58;;;;;;;;;;5034637;28;20025;-78
2023/06/05 06:10:58;;;;;;;13.10;2.15;;;;;;;;;;5033835;28;20025;-79
2023/06/05 06:13:23;;;;;;;5.90;2.40;;;;;;;;;;5033754;28;20033;-79
2023/06/05 06:15:49;;;;;;;6.25;2.40;;;;;;;;;;5034771;28;20025;-79
2023/06/05 06:18:14;;;;;;;4.18;1.90;;;;;;;;;;5034110;28;20038;-78
2023/06/05 06:20:40;;;;;;;6.75;3.00;;;;;;;;;;5029787;28;20035;-79
2023/06/05 06:23:05;;;;;;;9.85;3.10;;;;;;;;;;5034986;28;20101;-79
2023/06/05 06:25:31;;;;;;;6.93;2.20;;;;;;;;;;5034319;28;20025;-79
2023/06/05 06:30:27;;;;;;;5.65;2.80;;;;;;;;;;4949430;28;20047;-75
2023/06/05 06:32:53;;;;;;;6.55;2.55;;;;;;;;;;4954515;29;20097;-75
2023/06/05 06:35:19;;;;;;;4.15;2.15;;;;;;;;;;4968921;28;20031;-75
2023/06/05 06:37:44;;;;;;;6.35;3.05;;;;;;;;;;4954107;29;20038;-75
2023/06/05 06:40:10;;;;;;;7.10;2.30;;;;;;;;;;4953957;28;20019;-75
2023/06/05 06:42:36;;;;;;;6.28;2.30;;;;;;;;;;4953338;29;20386;-75
2023/06/05 06:45:20;;;;;;;4.07;2.13;;;;;;;;;;4952647;29;20046;-76
2023/06/05 06:47:45;;;;;;;5.88;2.60;;;;;;;;;;4953929;29;20039;-75
2023/06/05 06:50:11;;;;;;;4.75;2.10;;;;;;;;;;4936330;29;20031;-75
2023/06/05 06:52:37;;;;;;;5.38;2.20;;;;;;;;;;4953760;29;20516;-76
2023/06/05 06:55:02;;;;;;;7.45;3.05;;;;;;;;;;4953710;29;20027;-76
2023/06/05 06:57:27;;;;;;;7.07;3.28;;;;;;;;;;4953580;29;20110;-75
2023/06/05 06:59:53;;;;;;;6.45;4.03;;;;;;;;;;4968094;28;20490;-76
2023/06/05 07:02:19;;;;;;;5.72;2.50;;;;;;;;;;4968359;28;20043;-76
2023/06/05 07:04:45;;;;;;;5.30;2.90;;;;;;;;;;4953636;29;20078;-76
2023/06/05 07:07:12;;;;;;;8.13;2.55;;;;;;;;;;4953498;29;20035;-76
2023/06/05 07:09:37;;;;;;;5.75;2.70;;;;;;;;;;4952670;28;20446;-76
2023/06/05 07:12:05;;;;;;;5.43;2.50;;;;;;;;;;4941258;29;20066;-76
2023/06/05 07:14:31;;;;;;;5.65;2.53;;;;;;;;;;4967111;28;20042;-76
2023/06/05 07:16:58;;;;;;;6.22;3.63;;;;;;;;;;4953030;29;20493;-76
2023/06/05 07:19:24;;;;;;;5.78;4.00;;;;;;;;;;4952018;28;20039;-76
2023/06/05 07:21:49;;;;;;;7.65;2.97;;;;;;;;;;4968436;28;20141;-76
2023/06/05 07:24:15;;;;;;;4.65;2.40;;;;;;;;;;4953249;29;20027;-76
2023/06/05 07:26:40;;;;;;;5.55;2.47;;;;;;;;;;4952908;29;20078;-76
2023/06/05 07:29:05;;;;;;;5.10;2.30;;;;;;;;;;4955421;28;20026;-76
2023/06/05 07:31:31;;;;;;;5.50;2.03;;;;;;;;;;4952822;29;20468;-76
2023/06/05 07:33:56;;;;;;;5.18;2.80;;;;;;;;;;4952970;29;20025;-76
2023/06/05 07:36:22;;;;;;;6.53;2.37;;;;;;;;;;4952854;29;20370;-76
2023/06/05 07:38:48;;;;;;;3.70;2.05;;;;;;;;;;4967561;28;20776;-76
2023/06/05 07:41:13;;;;;;;6.78;3.35;;;;;;;;;;4949545;29;20027;-76
2023/06/05 07:43:42;;;;;;;9.32;5.20;;;;;;;;;;4951695;29;20508;-76
2023/06/05 07:46:08;;;;;;;7.60;2.78;;;;;;;;;;4952566;29;20031;-76
2023/06/05 07:48:34;;;;;;;5.10;2.13;;;;;;;;;;4952565;28;20039;-76
2023/06/05 07:50:59;;;;;;;5.38;3.45;;;;;;;;;;4952021;29;20034;-76
2023/06/05 07:53:25;;;;;;;3.05;1.58;;;;;;;;;;4953068;29;20023;-76
2023/06/05 07:55:51;;;;;;;4.22;2.15;;;;;;;;;;4952747;29;20537;-76
2023/06/05 07:58:17;;;;;;;7.20;1.92;;;;;;;;;;4935515;28;20039;-76
2023/06/05 08:00:43;;;;;;;5.78;2.00;;;;;;;;;;4951548;29;20121;-76
2023/06/05 08:03:08;;;;;;;5.65;2.08;;;;;;;;;;4952713;29;20059;-76
2023/06/05 08:05:35;;;;;;;5.28;1.88;;;;;;;;;;4952851;29;20577;-76
2023/06/05 08:08:02;;;;;;;7.45;1.67;;;;;;;;;;4951260;28;20114;-76
2023/06/05 08:10:27;;;;;;;4.85;1.90;;;;;;;;;;4952349;29;20115;-75
2023/06/05 08:12:52;;;;;;;6.90;2.00;;;;;;;;;;4952693;29;20083;-76
2023/06/05 08:15:18;;;;;;;3.63;1.70;;;;;;;;;;4951610;29;20094;-76
2023/06/05 08:17:43;;;;;;;3.50;1.70;;;;;;;;;;4967484;28;20032;-76
2023/06/05 08:20:10;;;;;;;4.28;1.88;;;;;;;;;;4951729;28;20298;-76
2023/06/05 08:22:36;;;;;;;6.22;1.50;;;;;;;;;;4949096;29;20039;-76
2023/06/05 08:25:04;;;;;;;3.55;1.77;;;;;;;;;;4952489;29;20039;-76
2023/06/05 08:27:29;;;;;;;5.93;2.05;;;;;;;;;;4952542;29;20509;-76
2023/06/05 08:29:54;;;;;;;3.33;1.67;;;;;;;;;;4951970;28;20031;-76
2023/06/05 08:32:21;;;;;;;4.00;2.03;;;;;;;;;;4952619;29;20037;-76
2023/06/05 08:34:46;;;;;;;4.70;2.10;;;;;;;;;;4935319;29;20050;-76
2023/06/05 08:37:11;;;;;;;6.68;2.78;;;;;;;;;;4951519;29;20114;-76
2023/06/05 08:39:36;;;;;;;5.10;1.63;;;;;;;;;;4952022;28;20039;-76
2023/06/05 08:42:03;;;;;;;6.90;2.30;;;;;;;;;;4941599;29;20286;-76
2023/06/05 08:44:29;;;;;;;4.13;1.65;;;;;;;;;;4956181;29;20709;-76
2023/06/05 08:46:57;;;;;;;3.70;1.85;;;;;;;;;;4955453;29;20055;-76
2023/06/05 08:49:25;;;;;;;7.32;1.90;;;;;;;;;;4955483;28;20552;-77
2023/06/05 08:51:56;;;;;;;8.10;1.98;;;;;;;;;;4956041;29;20127;-77
2023/06/05 08:54:21;;;;;;;10.32;1.95;;;;;;;;;;4954265;29;20039;-76
2023/06/05 08:56:48;;;;;;;5.93;1.83;;;;;;;;;;4955858;29;20524;-76
2023/06/05 08:59:14;;;;;;;5.60;2.15;;;;;;;;;;4955491;28;20043;-76
2023/06/05 09:01:40;;;;;;;5.47;2.17;;;;;;;;;;4954485;29;20031;-76
2023/06/05 09:04:05;;;;;;;8.15;2.10;;;;;;;;;;4954260;29;20033;-76
2023/06/05 09:06:33;;;;;;;6.15;2.03;;;;;;;;;;4938451;29;20442;-76
2023/06/05 09:08:59;;;;;;;4.20;2.22;;;;;;;;;;4938269;29;20042;-76
2023/06/05 09:11:26;;;;;;;6.82;2.55;;;;;;;;;;4955817;29;20037;-76
2023/06/05 09:13:52;;;;;;;6.97;2.33;;;;;;;;;;4938531;29;20516;-76
2023/06/05 09:16:21;;;;;;;5.00;1.77;;;;;;;;;;4955574;29;20110;-76
2023/06/05 09:18:53;;;;;;;5.90;2.80;;;;;;;;;;4952831;28;20035;-76
2023/06/05 09:21:19;;;;;;;4.45;1.85;;;;;;;;;;4954719;29;20043;-76
2023/06/05 09:23:44;;;;;;;4.57;2.05;;;;;;;;;;4955129;28;20385;-76
2023/06/05 09:26:12;;;;;;;5.28;2.30;;;;;;;;;;4940480;29;20145;-77
2023/06/05 09:28:46;;;;;;;5.95;2.03;;;;;;;;;;4957759;28;20085;-76
2023/06/05 09:31:12;;;;;;;5.03;1.80;;;;;;;;;;4953657;29;20561;-77
2023/06/05 09:33:38;;;;;;;5.68;2.17;;;;;;;;;;4955087;29;20107;-76
2023/06/05 09:36:03;;;;;;;7.00;2.13;;;;;;;;;;4952820;29;20031;-76
2023/06/05 09:38:28;;;;;;;6.88;2.33;;;;;;;;;;4954964;28;20112;-76
2023/06/05 09:41:01;;;;;;;6.32;2.28;;;;;;;;;;4955023;29;20027;-76
2023/06/05 09:43:26;;;;;;;5.82;3.22;;;;;;;;;;4953908;29;20036;-76
2023/06/05 09:45:51;;;;;;;3.60;2.40;;;;;;;;;;4955089;29;20081;-76
2023/06/05 09:48:16;;;;;;;2.87;1.80;;;;;;;;;;4954529;29;20653;-76
2023/06/05 09:50:42;;;;;;;5.07;2.43;;;;;;;;;;4954499;29;20753;-76
2023/06/05 09:53:13;;;;;;;6.05;2.80;;;;;;;;;;4954747;28;20737;-76
2023/06/05 09:55:38;;;;;;;4.32;2.38;;;;;;;;;;4954922;29;20020;-77
2023/06/05 09:58:11;;;;;;;4.05;2.10;;;;;;;;;;4952334;28;20520;-76
2023/06/05 10:00:38;;;;;;;6.55;2.67;;;;;;;;;;4952923;29;20548;-76
2023/06/05 10:03:07;;;;;;;4.88;2.40;;;;;;;;;;4954442;29;20504;-76
2023/06/05 10:05:34;;;;;;;3.85;1.77;;;;;;;;;;4954786;29;20194;-76
2023/06/05 10:08:00;;;;;;;5.97;2.05;;;;;;;;;;4954521;29;20430;-77
2023/06/05 10:10:25;;;;;;;3.60;2.00;;;;;;;;;;4954211;28;20034;-77
2023/06/05 10:12:56;;;;;;;4.88;2.08;;;;;;;;;;4952370;28;20370;-77
2023/06/05 10:15:21;;;;;;;3.53;1.83;;;;;;;;;;4954818;28;20041;-76
2023/06/05 10:17:48;;;;;;;4.22;1.75;;;;;;;;;;4953566;28;20027;-77
2023/06/05 10:20:13;;;;;;;5.72;2.13;;;;;;;;;;4954666;28;20034;-77
2023/06/05 10:22:41;;;;;;;3.60;1.83;;;;;;;;;;4954436;29;20035;-76
2023/06/05 10:25:07;;;;;;;6.88;2.00;;;;;;;;;;4954144;29;20070;-77
2023/06/05 10:27:47;;;;;;;5.75;2.00;;;;;;;;;;4955950;28;20070;-77
2023/06/05 10:30:23;;;;;;;5.43;2.10;;;;;;;;;;4950305;28;20039;-77
2023/06/05 10:32:57;;;;;;;3.83;2.00;;;;;;;;;;4953533;28;20019;-77
2023/06/05 10:35:46;;;;;;;6.15;2.22;;;;;;;;;;4952671;28;20118;-77
2023/06/05 10:38:18;;;;;;;5.32;2.00;;;;;;;;;;4932996;28;20046;-77
2023/06/05 10:41:13;;;;;;;6.97;2.10;;;;;;;;;;4958743;28;20027;-77
2023/06/05 10:43:48;;;;;;;4.47;1.80;;;;;;;;;;4944120;29;20494;-77
2023/06/05 10:46:43;;;;;;;3.70;2.03;;;;;;;;;;4936738;29;20497;-76
2023/06/05 10:49:21;;;;;;;4.22;1.60;;;;;;;;;;4935657;28;20041;-76
2023/06/05 10:51:47;;;;;;;2.63;1.30;;;;;;;;;;4961025;28;20106;-77
2023/06/05 10:54:21;;;;;;;3.58;2.22;;;;;;;;;;4938237;29;20031;-77
2023/06/05 10:57:01;;;;;;;4.13;1.80;;;;;;;;;;4957360;28;20489;-76
2023/06/05 10:59:33;;;;;;;9.63;1.83;;;;;;;;;;4964514;28;20036;-75
2023/06/05 11:02:08;;;;;;;6.55;1.98;;;;;;;;;;4950550;28;20062;-75
2023/06/05 11:04:46;;;;;;;3.75;1.73;;;;;;;;;;4949411;28;20034;-75
2023/06/05 11:07:21;;;;;;;4.47;1.75;;;;;;;;;;4955163;28;20125;-75
2023/06/05 11:10:05;;;;;;;4.38;1.45;;;;;;;;;;4968677;28;20062;-75
2023/06/05 11:12:42;;;;;;;4.60;1.80;;;;;;;;;;4952153;29;20019;-75
2023/06/05 11:15:14;;;;;;;5.80;2.00;;;;;;;;;;4965484;28;20019;-75
2023/06/05 11:17:43;;;;;;;4.95;2.03;;;;;;;;;;4951779;29;20545;-75
2023/06/05 11:20:28;;;;;;;8.93;1.83;;;;;;;;;;4948785;28;20027;-75
2023/06/05 11:22:54;;;;;;;3.80;1.77;;;;;;;;;;4939942;28;20038;-75
2023/06/05 11:25:30;;;;;;;4.20;2.20;;;;;;;;;;4949488;28;20031;-75
2023/06/05 11:27:56;;;;;;;7.13;2.90;;;;;;;;;;4957115;28;20406;-75
2023/06/05 11:30:23;;;;;;;5.07;2.75;;;;;;;;;;4952965;28;20046;-75
2023/06/05 11:32:52;;;;;;;4.82;2.42;;;;;;;;;;4949473;29;20027;-75
2023/06/05 11:35:20;;;;;;;5.55;1.92;;;;;;;;;;4952298;29;20039;-75
2023/06/05 11:37:46;;;;;;;11.85;5.30;;;;;;;;;;4950444;29;20082;-75
2023/06/05 11:40:23;;;;;;;8.52;4.75;;;;;;;;;;4952658;28;20922;-75
2023/06/05 11:42:48;;;;;;;5.28;2.40;;;;;;;;;;4953064;28;20031;-75
2023/06/05 11:45:14;;;;;;;8.00;3.27;;;;;;;;;;4953084;29;20493;-75
2023/06/05 11:47:39;;;;;;;3.35;1.88;;;;;;;;;;4953026;29;20046;-75
2023/06/05 11:50:08;;;;;;;8.52;4.97;;;;;;;;;;4952524;28;20077;-75
2023/06/05 11:52:33;;;;;;;6.55;2.15;;;;;;;;;;4952745;29;20066;-75
2023/06/05 11:55:13;;;;;;;4.55;1.98;;;;;;;;;;4953009;29;20083;-75
2023/06/05 11:57:44;;;;;;;4.18;2.00;;;;;;;;;;4949784;29;20027;-75
2023/06/05 12:00:12;;;;;;;4.03;2.10;;;;;;;;;;4952379;28;20050;-75
2023/06/05 12:02:38;;;;;;;5.00;2.47;;;;;;;;;;4951917;29;20118;-75
2023/06/05 12:05:07;;;;;;;6.43;3.55;;;;;;;;;;4967176;28;20114;-75
2023/06/05 12:07:36;;;;;;;5.22;2.78;;;;;;;;;;4952239;28;20031;-75
2023/06/05 12:10:03;;;;;;;6.38;2.53;;;;;;;;;;4951084;28;20397;-75
2023/06/05 12:12:29;;;;;;;6.15;2.25;;;;;;;;;;4950025;28;20549;-75
2023/06/05 12:14:55;;;;;;;4.50;2.63;;;;;;;;;;4949463;28;20158;-75
2023/06/05 12:17:22;;;;;;;3.95;2.72;;;;;;;;;;4955976;28;20058;-75
2023/06/05 12:19:53;;;;;;;6.82;2.50;;;;;;;;;;4955404;28;20027;-75
2023/06/05 12:22:19;;;;;;;6.97;2.58;;;;;;;;;;4954758;29;20089;-75
2023/06/05 12:24:44;;;;;;;3.67;2.22;;;;;;;;;;4939164;29;20031;-75
2023/06/05 12:27:09;;;;;;;5.37;2.20;;;;;;;;;;4955765;29;20055;-75
2023/06/05 12:29:38;;;;;;;3.47;1.80;;;;;;;;;;4955868;28;20124;-74
2023/06/05 12:32:18;;;;;;;5.22;2.25;;;;;;;;;;4946260;29;20372;-75
2023/06/05 12:34:50;;;;;;;5.80;2.25;;;;;;;;;;4956325;29;20026;-75
2023/06/05 12:37:31;;;;;;;4.75;2.70;;;;;;;;;;4956496;29;20024;-75
2023/06/05 12:39:58;;;;;;;4.47;2.00;;;;;;;;;;4955922;28;20117;-74
2023/06/05 12:42:23;;;;;;;3.90;1.70;;;;;;;;;;4956516;29;20110;-75
2023/06/05 12:44:48;;;;;;;5.27;2.90;;;;;;;;;;4956319;29;20442;-75
2023/06/05 12:47:14;;;;;;;3.17;2.00;;;;;;;;;;4956096;29;20609;-75
2023/06/05 12:49:39;;;;;;;5.00;2.97;;;;;;;;;;4956826;28;20031;-75
2023/06/05 12:52:07;;;;;;;4.13;2.30;;;;;;;;;;4957869;28;20628;-75
2023/06/05 12:54:32;;;;;;;5.38;2.58;;;;;;;;;;4953498;29;20115;-74
2023/06/05 12:56:57;;;;;;;4.60;2.97;;;;;;;;;;4951115;29;20116;-75
2023/06/05 12:59:22;;;;;;;3.10;1.97;;;;;;;;;;4955269;28;20039;-75
2023/06/05 13:01:48;;;;;;;6.03;2.50;;;;;;;;;;4954990;29;20031;-75
2023/06/05 13:04:13;;;;;;;4.70;1.67;;;;;;;;;;4955992;29;20106;-75
2023/06/05 13:06:40;;;;;;;3.87;2.00;;;;;;;;;;4938710;29;20031;-75
2023/06/05 13:09:05;;;;;;;3.47;2.20;;;;;;;;;;4955169;28;20772;-74
2023/06/05 13:11:30;;;;;;;3.93;2.40;;;;;;;;;;4962309;28;20027;-75
2023/06/05 13:13:55;;;;;;;3.20;2.00;;;;;;;;;;4938634;29;20274;-74
2023/06/05 13:16:20;;;;;;;4.83;1.80;;;;;;;;;;4955488;29;20405;-74
2023/06/05 13:18:46;;;;;;;2.97;1.53;;;;;;;;;;4955290;28;20042;-75
2023/06/05 13:21:11;;;;;;;5.13;2.87;;;;;;;;;;4955618;29;20310;-74
2023/06/05 13:23:36;;;;;;;4.40;2.00;;;;;;;;;;4955425;29;20051;-74
2023/06/05 13:26:02;;;;;;;3.43;2.13;;;;;;;;;;4955074;28;20277;-75
2023/06/05 13:28:28;;;;;;;5.15;2.85;;;;;;;;;;4955319;28;20289;-74
2023/06/05 13:30:53;;;;;;;5.63;3.22;;;;;;;;;;4955166;29;20032;-74
2023/06/05 13:33:18;;;;;;;4.57;2.80;;;;;;;;;;4955380;29;20089;-74
2023/06/05 13:35:44;;;;;;;6.65;4.03;;;;;;;;;;4955407;29;20039;-74
2023/06/05 13:38:09;;;;;;;6.05;3.47;;;;;;;;;;4957262;28;20114;-74
2023/06/05 13:40:34;;;;;;;4.67;2.80;;;;;;;;;;4955073;29;20058;-75
2023/06/05 13:43:00;;;;;;;4.95;3.00;;;;;;;;;;4954978;29;20060;-74
2023/06/05 13:45:25;;;;;;;5.05;2.92;;;;;;;;;;4955210;29;20101;-75
2023/06/05 13:47:51;;;;;;;6.33;2.20;;;;;;;;;;4955121;29;20027;-75
2023/06/05 13:50:17;;;;;;;4.60;2.00;;;;;;;;;;4957058;28;20286;-75
2023/06/05 13:52:42;;;;;;;6.10;2.80;;;;;;;;;;4955163;29;20036;-75
2023/06/05 13:55:07;;;;;;;5.53;2.80;;;;;;;;;;4955190;29;20034;-75
2023/06/05 13:57:32;;;;;;;4.57;2.00;;;;;;;;;;4954261;29;20041;-75
2023/06/05 13:59:58;;;;;;;6.57;2.80;;;;;;;;;;4954568;28;20155;-74
2023/06/05 14:02:23;;;;;;;7.23;2.77;;;;;;;;;;4954442;29;20050;-75
2023/06/05 14:04:48;;;;;;;6.20;2.80;;;;;;;;;;4954763;29;20306;-75
2023/06/05 14:07:14;;;;;;;4.40;2.50;;;;;;;;;;4954770;29;20271;-75
2023/06/05 14:09:39;;;;;;;8.23;3.88;;;;;;;;;;4945085;29;20270;-75
2023/06/05 14:12:04;;;;;;;6.63;2.30;;;;;;;;;;4954596;29;20055;-75
2023/06/05 14:14:29;;;;;;;5.25;2.67;;;;;;;;;;4954478;29;20557;-75
2023/06/05 14:16:55;;;;;;;4.07;2.30;;;;;;;;;;4953065;28;20406;-75
2023/06/05 14:19:20;;;;;;;5.30;2.10;;;;;;;;;;4954056;28;20298;-75
2023/06/05 14:21:46;;;;;;;5.63;2.25;;;;;;;;;;4960791;28;20058;-75
2023/06/05 14:24:12;;;;;;;4.10;2.22;;;;;;;;;;4955761;28;20035;-74
2023/06/05 14:26:37;;;;;;;3.92;2.45;;;;;;;;;;4958788;28;20123;-75
2023/06/05 14:29:03;;;;;;;7.22;2.50;;;;;;;;;;4952355;29;20039;-75
2023/06/05 14:31:28;;;;;;;6.55;2.80;;;;;;;;;;4954025;29;20035;-75
2023/06/05 14:33:53;;;;;;;6.05;2.83;;;;;;;;;;4952570;29;20576;-75
2023/06/05 14:36:19;;;;;;;4.95;2.75;;;;;;;;;;4954753;28;20045;-74
2023/06/05 14:38:44;;;;;;;5.53;2.53;;;;;;;;;;4970800;28;20035;-75
2023/06/05 14:41:09;;;;;;;5.67;2.30;;;;;;;;;;4953916;29;20314;-75
2023/06/05 14:43:35;;;;;;;4.90;2.67;;;;;;;;;;4954260;29;20038;-74
2023/06/05 14:46:00;;;;;;;9.52;3.20;;;;;;;;;;4951865;29;20796;-75